Angle, Utah
Current Conditions -  °F | °C
As of 2:53 AM on Tuesday 27 Jan 2015 (Local Time) from KBCE Reporting Station
Light Snow Light Snow  
Wind Chill: 31°   Ceiling: 4200
Heat Index: 31°   Visibility: NA
Dew Point: 27°   Wind: 0mph
Humidity: 85%   Direction: NA
Pressure: 30.31"   Gusts: NA
Location:  37.9601°N, 112.141°W
Report Text: KBCE 270953Z AUTO 00000KT -SN BKN042 OVC055 M01/M03 A3031 RMK AO2 SNB22 SLP207 P0000 T10061028 $
Loading
Personal Weather Stations






























Interactive Weather Map New forecast layout! Learn more

10-Day Weather Forecast

Advertisements
Track Severe Weather on mobile